Halder, Wisconsin
Current Conditions -  °F | °C
As of 2:35 AM on Saturday 25 Oct 2014 (Local Time) from KCWA Reporting Station
Haze Haze  
Wind Chill: 54°   Ceiling: 400
Heat Index: 54°   Visibility: 4mi
Dew Point: 54°   Wind: 8mph
Humidity: 100%   Direction: 270°W
Pressure: 29.85"   Gusts: NA
Location:  44.7605°N, 89.5918°W
Report Text: KCWA 250735Z AUTO 27007KT 4SM BR OVC004 12/12 A2985 RMK AO2
Loading
Personal Weather Stations






























Interactive Weather Map
Tropical Storm Tracking
New forecast layout! Learn more

10-Day Weather Forecast

Advertisements
Track Severe Weather on mobile